createdAt,value
2023-01-12T00:00:04.152Z,9.83
2023-01-12T00:02:35.883Z,16.47
2023-01-12T00:05:07.543Z,15.27
2023-01-12T00:07:38.213Z,10.30
2023-01-12T00:10:10.498Z,11.93
2023-01-12T00:12:41.255Z,16.23
2023-01-12T00:15:13.565Z,17.10
2023-01-12T00:17:44.207Z,14.27
2023-01-12T00:20:15.216Z,12.90
2023-01-12T00:22:50.113Z,13.97
2023-01-12T00:25:20.912Z,12.50
2023-01-12T00:27:52.481Z,17.60
2023-01-12T00:30:23.214Z,24.33
2023-01-12T00:32:54.532Z,15.67
2023-01-12T00:35:25.510Z,15.60
2023-01-12T00:37:56.146Z,12.40
2023-01-12T00:40:26.763Z,11.50
2023-01-12T00:43:14.861Z,16.40
2023-01-12T00:45:45.481Z,16.93
2023-01-12T00:48:16.191Z,16.37
2023-01-12T00:50:47.216Z,22.60
2023-01-12T00:53:17.857Z,18.10
2023-01-12T00:55:49.412Z,18.57
2023-01-12T00:58:20.233Z,18.07
2023-01-12T01:00:50.926Z,12.73
2023-01-12T01:03:21.607Z,14.00
2023-01-12T01:05:52.352Z,18.67
2023-01-12T01:08:22.915Z,17.83
2023-01-12T01:11:03.133Z,15.30
2023-01-12T01:13:35.223Z,15.33
2023-01-12T01:16:07.800Z,10.37
2023-01-12T01:18:39.151Z,14.63
2023-01-12T01:21:11.721Z,12.10
2023-01-12T01:23:43.793Z,10.97
2023-01-12T01:26:17.326Z,13.33
2023-01-12T01:28:48.246Z,14.73
2023-01-12T01:31:21.455Z,13.93
2023-01-12T01:33:53.086Z,10.47
2023-01-12T01:36:23.968Z,11.90
2023-01-12T01:38:54.840Z,8.57
2023-01-12T01:41:27.712Z,16.10
2023-01-12T01:44:00.867Z,11.83
2023-01-12T01:46:42.423Z,13.00
2023-01-12T01:49:18.896Z,12.23
2023-01-12T01:51:50.032Z,10.40
2023-01-12T01:54:20.772Z,19.53
2023-01-12T01:56:53.177Z,10.97
2023-01-12T01:59:26.939Z,14.57
2023-01-12T02:01:58.265Z,19.97
2023-01-12T02:04:29.898Z,19.70
2023-01-12T02:07:01.984Z,15.10
2023-01-12T02:09:33.465Z,110.93
2023-01-12T02:12:22.543Z,214.13
2023-01-12T02:15:12.000Z,19.10
2023-01-12T02:17:50.790Z,165.33
2023-01-12T02:23:53.705Z,22.67
2023-01-12T02:27:07.056Z,20.77
2023-01-12T02:30:19.652Z,22.83
2023-01-12T02:32:55.631Z,27.00
2023-01-12T02:35:29.778Z,21.43
2023-01-12T02:38:04.783Z,35.13
2023-01-12T02:40:38.632Z,15.87
2023-01-12T02:43:12.954Z,22.50
2023-01-12T02:45:47.947Z,84.07
2023-01-12T02:48:22.615Z,17.87
2023-01-12T02:50:56.308Z,23.13
2023-01-12T02:53:31.647Z,18.63
2023-01-12T02:56:05.295Z,19.63
2023-01-12T02:58:38.918Z,20.07
2023-01-12T03:01:10.878Z,26.90
2023-01-12T03:03:43.173Z,24.57
2023-01-12T03:06:18.581Z,23.50
2023-01-12T03:08:51.177Z,26.07
2023-01-12T03:11:24.207Z,25.90
2023-01-12T03:13:57.653Z,24.47
2023-01-12T03:16:31.014Z,29.23
2023-01-12T03:19:06.203Z,41.57
2023-01-12T03:21:39.995Z,292.10
2023-01-12T03:24:13.193Z,894.67
2023-01-12T03:26:46.781Z,669.20
2023-01-12T03:29:20.420Z,956.60
2023-01-12T03:31:51.172Z,925.80
2023-01-12T03:34:22.292Z,515.70
2023-01-12T03:36:56.300Z,1073.23
2023-01-12T03:39:30.356Z,1047.40
2023-01-12T03:42:03.988Z,919.73
2023-01-12T03:44:39.187Z,724.73
2023-01-12T03:47:13.415Z,478.27
2023-01-12T03:49:47.357Z,464.37
2023-01-12T03:52:19.683Z,340.23
2023-01-12T03:54:52.971Z,405.70
2023-01-12T03:57:24.441Z,331.20
2023-01-12T03:59:56.175Z,154.13
2023-01-12T04:02:26.877Z,282.47
2023-01-12T04:04:58.961Z,233.67
2023-01-12T04:07:30.546Z,305.50
2023-01-12T04:10:01.121Z,289.57
2023-01-12T04:12:31.703Z,218.97
2023-01-12T04:15:02.391Z,517.13
2023-01-12T04:17:33.485Z,664.13
2023-01-12T04:20:04.914Z,872.13
2023-01-12T04:22:44.526Z,671.43
2023-01-12T04:25:16.823Z,721.57
2023-01-12T04:27:49.920Z,791.47
2023-01-12T04:30:24.318Z,492.87
2023-01-12T04:32:55.788Z,645.77
2023-01-12T04:35:27.825Z,597.77
2023-01-12T04:40:37.068Z,473.70
2023-01-12T04:43:08.862Z,314.80
2023-01-12T04:45:42.189Z,352.47
2023-01-12T04:48:15.698Z,424.57
2023-01-12T04:50:46.365Z,253.27
2023-01-12T04:53:17.436Z,271.67
2023-01-12T04:55:49.778Z,279.53
2023-01-12T04:58:20.556Z,237.83
2023-01-12T05:00:51.304Z,342.97
2023-01-12T05:03:23.277Z,365.17
2023-01-12T05:05:54.026Z,228.77
2023-01-12T05:08:42.126Z,349.53
2023-01-12T05:11:12.742Z,845.57
2023-01-12T05:13:43.426Z,836.90
2023-01-12T05:16:16.245Z,560.33
2023-01-12T05:18:47.633Z,937.20
2023-01-12T05:21:19.067Z,884.93
2023-01-12T05:23:50.267Z,614.17
2023-01-12T05:26:21.396Z,532.97
2023-01-12T05:28:52.751Z,358.80
2023-01-12T05:31:23.414Z,299.90
2023-01-12T05:33:53.996Z,364.43
2023-01-12T05:36:26.534Z,159.53
2023-01-12T05:38:57.158Z,298.90
2023-01-12T05:41:28.001Z,370.87
2023-01-12T05:43:58.583Z,268.90
2023-01-12T05:46:31.026Z,274.20
2023-01-12T05:49:01.641Z,223.90
2023-01-12T05:51:32.824Z,312.80
2023-01-12T05:54:03.779Z,135.33
2023-01-12T05:56:34.393Z,293.87
2023-01-12T05:59:07.224Z,155.27
2023-01-12T06:01:38.720Z,46.43
2023-01-12T06:04:09.358Z,36.80
2023-01-12T06:06:40.143Z,117.03
2023-01-12T06:09:11.086Z,197.63
2023-01-12T06:11:59.204Z,33.17
2023-01-12T06:14:30.130Z,39.97
2023-01-12T06:17:00.885Z,54.63
2023-01-12T06:19:31.597Z,65.43
2023-01-12T06:22:02.448Z,62.43
2023-01-12T06:24:36.906Z,55.63
2023-01-12T06:27:08.204Z,52.13
2023-01-12T06:29:38.851Z,52.90
2023-01-12T06:32:09.570Z,46.17
2023-01-12T06:34:40.424Z,52.97
2023-01-12T06:37:12.728Z,59.00
2023-01-12T06:39:43.418Z,37.83
2023-01-12T06:42:33.595Z,39.90
2023-01-12T06:45:04.968Z,30.70
2023-01-12T06:47:35.691Z,39.83
2023-01-12T06:50:07.276Z,310.57
2023-01-12T06:52:38.006Z,751.23
2023-01-12T06:55:09.978Z,873.20
2023-01-12T06:57:40.661Z,654.53
2023-01-12T07:00:14.139Z,470.73
2023-01-12T07:02:44.934Z,177.57
2023-01-12T07:05:15.739Z,231.93
2023-01-12T07:07:46.412Z,585.90
2023-01-12T07:10:17.660Z,504.83
2023-01-12T07:12:48.375Z,242.00
2023-01-12T07:15:19.421Z,416.97
2023-01-12T07:17:51.555Z,364.37
2023-01-12T07:20:22.181Z,239.70
2023-01-12T07:22:53.117Z,178.40
2023-01-12T07:25:25.213Z,82.30
2023-01-12T07:27:57.757Z,57.57
2023-01-12T07:30:29.158Z,46.77
2023-01-12T07:35:46.823Z,54.07
2023-01-12T07:38:17.484Z,54.37
2023-01-12T07:40:48.116Z,59.57
2023-01-12T07:43:19.347Z,46.13
2023-01-12T07:45:50.131Z,40.27
2023-01-12T07:48:21.835Z,41.83
2023-01-12T07:50:52.901Z,58.70
2023-01-12T07:53:24.128Z,51.93
2023-01-12T07:55:54.825Z,194.70
2023-01-12T07:58:26.999Z,115.03
2023-01-12T08:01:00.528Z,78.80
2023-01-12T08:03:31.204Z,437.33
2023-01-12T08:06:03.216Z,372.83
2023-01-12T08:08:33.926Z,246.27
2023-01-12T08:11:05.132Z,79.40
2023-01-12T08:13:35.937Z,87.77
2023-01-12T08:16:10.356Z,52.47
2023-01-12T08:18:44.288Z,41.13
2023-01-12T08:21:17.911Z,41.07
2023-01-12T08:23:51.057Z,42.67
2023-01-12T08:26:24.777Z,221.93
2023-01-12T08:28:58.182Z,239.37
2023-01-12T08:31:29.786Z,98.70
2023-01-12T08:34:00.601Z,55.70
2023-01-12T08:36:33.398Z,69.77
2023-01-12T08:39:04.988Z,57.50
2023-01-12T08:41:37.387Z,67.87
2023-01-12T08:44:11.233Z,101.93
2023-01-12T08:46:48.119Z,59.20
2023-01-12T08:49:22.331Z,63.73
2023-01-12T08:51:54.240Z,85.20
2023-01-12T08:54:25.512Z,172.93
2023-01-12T08:56:56.097Z,75.10
2023-01-12T08:59:26.805Z,56.20
2023-01-12T09:01:57.546Z,297.07
2023-01-12T09:04:28.413Z,100.33
2023-01-12T09:07:00.171Z,53.40
2023-01-12T09:09:31.087Z,66.87
2023-01-12T09:12:01.963Z,60.60
2023-01-12T09:14:32.756Z,68.93
2023-01-12T09:17:03.431Z,77.73
2023-01-12T09:19:34.408Z,68.07
2023-01-12T09:22:04.990Z,60.03
2023-01-12T09:24:36.777Z,62.33
2023-01-12T09:27:07.559Z,59.53
2023-01-12T09:29:38.232Z,65.73
2023-01-12T09:32:09.119Z,65.30
2023-01-12T09:34:39.794Z,60.70
2023-01-12T09:37:10.686Z,57.33
2023-01-12T09:39:41.357Z,64.13
2023-01-12T09:45:13.469Z,56.50
2023-01-12T09:47:53.653Z,512.23
2023-01-12T09:50:28.435Z,694.43
2023-01-12T09:55:42.221Z,503.23
2023-01-12T09:58:33.001Z,270.97
2023-01-12T10:01:06.329Z,65.27
2023-01-12T10:03:39.444Z,65.13
2023-01-12T10:06:15.145Z,63.90
2023-01-12T10:08:48.914Z,63.27
2023-01-12T10:11:23.278Z,63.23
2023-01-12T10:14:37.313Z,63.10
2023-01-12T10:17:25.807Z,68.17
2023-01-12T10:20:01.687Z,67.10
2023-01-12T10:22:54.082Z,65.27
2023-01-12T10:25:37.070Z,56.60
2023-01-12T10:28:15.491Z,55.13
2023-01-12T10:30:47.237Z,57.07
2023-01-12T10:33:20.774Z,62.50
2023-01-12T10:35:55.830Z,58.40
2023-01-12T10:38:29.609Z,56.80
2023-01-12T10:41:17.348Z,53.90
2023-01-12T10:43:50.803Z,55.97
2023-01-12T10:46:24.635Z,64.97
2023-01-12T10:48:57.200Z,53.97
2023-01-12T10:51:30.384Z,49.33
2023-01-12T10:54:04.499Z,56.60
2023-01-12T10:56:39.446Z,58.37
2023-01-12T10:59:17.967Z,53.27
2023-01-12T11:01:52.141Z,55.77
2023-01-12T11:04:25.997Z,51.07
2023-01-12T11:07:05.072Z,54.77
2023-01-12T11:09:35.428Z,40.87
2023-01-12T11:12:09.001Z,51.63
2023-01-12T11:14:40.044Z,53.17
2023-01-12T11:17:28.907Z,44.47
2023-01-12T11:20:02.096Z,39.80
2023-01-12T11:22:36.392Z,42.30
2023-01-12T11:25:11.125Z,47.40
2023-01-12T11:27:45.839Z,43.80
2023-01-12T11:30:22.024Z,41.67
2023-01-12T11:32:56.742Z,31.33
2023-01-12T11:35:35.016Z,31.03
2023-01-12T11:38:13.117Z,29.00
2023-01-12T11:40:45.931Z,24.87
2023-01-12T11:43:43.132Z,20.53
2023-01-12T11:46:21.175Z,21.60
2023-01-12T11:48:58.076Z,24.03
2023-01-12T11:51:29.120Z,19.23
2023-01-12T11:54:00.995Z,25.30
2023-01-12T11:57:12.228Z,26.10
2023-01-12T11:59:47.252Z,22.50
2023-01-12T12:02:26.712Z,25.57
2023-01-12T12:05:20.399Z,24.67
2023-01-12T12:08:02.935Z,28.30
2023-01-12T12:10:37.672Z,24.30
2023-01-12T12:13:32.735Z,26.17
2023-01-12T12:16:22.571Z,22.77
2023-01-12T12:18:59.409Z,24.70
2023-01-12T12:21:42.449Z,21.67
2023-01-12T12:24:19.457Z,20.93
2023-01-12T12:26:54.926Z,25.60
2023-01-12T12:29:33.421Z,25.93
2023-01-12T12:32:18.473Z,25.13
2023-01-12T12:35:16.615Z,26.43
2023-01-12T12:37:54.496Z,27.60
2023-01-12T12:40:37.794Z,25.63
2023-01-12T12:43:30.174Z,25.13
2023-01-12T12:46:05.501Z,25.73
2023-01-12T12:48:39.679Z,22.57
2023-01-12T12:51:13.194Z,23.60
2023-01-12T12:53:46.098Z,22.60
2023-01-12T12:56:20.852Z,18.47
2023-01-12T12:58:52.916Z,17.20
2023-01-12T13:01:57.497Z,19.73
2023-01-12T13:05:04.875Z,17.27
2023-01-12T13:07:37.630Z,16.13
2023-01-12T13:10:32.678Z,15.73
2023-01-12T13:13:08.816Z,15.03
2023-01-12T13:15:40.230Z,18.13
2023-01-12T13:18:15.220Z,12.77
2023-01-12T13:20:59.091Z,15.50
2023-01-12T13:23:52.133Z,15.83
2023-01-12T13:26:55.605Z,13.67
2023-01-12T13:29:46.275Z,13.17
2023-01-12T13:36:10.918Z,12.53
2023-01-12T13:39:07.181Z,11.23
2023-01-12T13:42:10.205Z,13.47
2023-01-12T13:44:44.741Z,11.87
2023-01-12T13:47:19.598Z,16.30
2023-01-12T13:49:53.933Z,14.20
2023-01-12T13:52:28.691Z,15.53
2023-01-12T13:54:59.809Z,13.90
2023-01-12T13:57:32.725Z,16.85
2023-01-12T14:00:07.933Z,14.00
2023-01-12T14:02:40.190Z,13.03
2023-01-12T14:05:22.544Z,10.67
2023-01-12T14:07:58.916Z,13.80
2023-01-12T14:10:36.480Z,16.97
2023-01-12T14:13:15.874Z,11.77
2023-01-12T14:16:04.357Z,14.57
2023-01-12T14:18:46.618Z,14.27
2023-01-12T14:21:30.301Z,11.03
2023-01-12T14:24:17.281Z,11.13
2023-01-12T14:26:48.719Z,15.20
2023-01-12T14:29:19.817Z,15.13
2023-01-12T14:31:52.524Z,12.17
2023-01-12T14:34:31.688Z,12.00
2023-01-12T14:37:03.917Z,17.40
2023-01-12T14:39:39.093Z,17.37
2023-01-12T14:42:36.178Z,9.07
2023-01-12T14:45:36.688Z,11.97
2023-01-12T14:48:23.645Z,9.17
2023-01-12T14:51:17.628Z,15.63
2023-01-12T14:53:49.942Z,16.60
2023-01-12T14:56:24.043Z,19.77
2023-01-12T14:58:55.454Z,16.63
2023-01-12T15:01:33.965Z,16.67
2023-01-12T15:04:05.967Z,13.53
2023-01-12T15:06:41.088Z,20.13
2023-01-12T15:09:29.610Z,17.37
2023-01-12T15:12:00.729Z,21.33
2023-01-12T15:14:32.044Z,18.47
2023-01-12T15:17:28.183Z,17.13
2023-01-12T15:20:51.952Z,18.80
2023-01-12T15:23:44.252Z,15.93
2023-01-12T15:26:15.225Z,14.00
2023-01-12T15:28:47.460Z,22.47
2023-01-12T15:31:22.919Z,14.47
2023-01-12T15:33:53.953Z,11.17
2023-01-12T15:36:24.955Z,13.57
2023-01-12T15:38:55.832Z,16.03
2023-01-12T15:41:48.000Z,14.10
2023-01-12T15:44:20.456Z,10.83
2023-01-12T15:46:51.190Z,15.40
2023-01-12T15:49:22.517Z,19.33
2023-01-12T15:51:54.030Z,17.43
2023-01-12T15:54:25.114Z,12.70
2023-01-12T15:56:57.641Z,13.27
2023-01-12T15:59:28.683Z,14.73
2023-01-12T16:01:59.683Z,10.63
2023-01-12T16:04:46.037Z,15.03
2023-01-12T16:07:03.228Z,13.67
2023-01-12T16:09:34.226Z,11.53
2023-01-12T16:12:05.676Z,16.67
2023-01-12T16:14:37.137Z,12.60
2023-01-12T16:17:07.978Z,15.47
2023-01-12T16:19:42.734Z,13.47
2023-01-12T16:22:21.689Z,12.00
2023-01-12T16:24:56.643Z,12.33
2023-01-12T16:27:31.037Z,10.77
2023-01-12T16:30:04.089Z,16.30
2023-01-12T16:32:36.200Z,16.47
2023-01-12T16:35:09.622Z,13.53
2023-01-12T16:37:43.193Z,13.27
2023-01-12T16:40:15.775Z,15.37
2023-01-12T16:42:46.847Z,12.10
2023-01-12T16:45:18.567Z,17.73
2023-01-12T16:47:49.506Z,17.20
2023-01-12T16:50:20.521Z,13.23
2023-01-12T16:52:51.410Z,13.80
2023-01-12T16:55:22.317Z,14.00
2023-01-12T16:57:53.118Z,16.37
2023-01-12T17:00:26.403Z,15.13
2023-01-12T17:02:57.757Z,18.47
2023-01-12T17:05:29.302Z,18.73
2023-01-12T17:08:01.542Z,14.33
2023-01-12T17:10:33.619Z,20.60
2023-01-12T17:13:05.401Z,17.13
2023-01-12T17:18:15.677Z,16.70
2023-01-12T17:20:46.675Z,20.33
2023-01-12T17:23:17.903Z,18.50
2023-01-12T17:25:48.785Z,15.67
2023-01-12T17:28:19.639Z,14.97
2023-01-12T17:30:50.668Z,16.05
2023-01-12T17:33:22.096Z,15.40
2023-01-12T17:35:54.509Z,16.03
2023-01-12T17:38:25.561Z,16.23
2023-01-12T17:40:57.468Z,16.50
2023-01-12T17:43:28.813Z,19.30
2023-01-12T17:46:01.518Z,17.47
2023-01-12T17:48:32.734Z,15.87
2023-01-12T17:51:05.331Z,17.30
2023-01-12T17:53:36.236Z,15.17
2023-01-12T17:56:09.996Z,16.43
2023-01-12T17:58:41.918Z,14.37
2023-01-12T18:01:16.336Z,14.13
2023-01-12T18:04:06.514Z,19.17
2023-01-12T18:06:38.366Z,19.33
2023-01-12T18:09:11.203Z,17.73
2023-01-12T18:11:42.461Z,25.23
2023-01-12T18:14:13.938Z,17.17
2023-01-12T18:16:45.101Z,22.57
2023-01-12T18:19:16.212Z,14.70
2023-01-12T18:21:46.981Z,19.00
2023-01-12T18:24:17.820Z,15.60
2023-01-12T18:26:48.568Z,12.33
2023-01-12T18:29:19.695Z,15.40
2023-01-12T18:31:50.587Z,17.03
2023-01-12T18:34:21.649Z,15.80
2023-01-12T18:36:52.532Z,12.53
2023-01-12T18:39:23.396Z,16.07
2023-01-12T18:42:12.258Z,13.27
2023-01-12T18:44:43.100Z,17.77
2023-01-12T18:47:34.712Z,17.60
2023-01-12T18:50:24.896Z,12.43
2023-01-12T18:53:12.967Z,14.13
2023-01-12T18:55:44.078Z,15.17
2023-01-12T18:58:14.913Z,15.00
2023-01-12T19:00:45.779Z,16.57
2023-01-12T19:03:17.185Z,10.60
2023-01-12T19:05:51.574Z,19.97
2023-01-12T19:08:40.082Z,15.90
2023-01-12T19:11:13.152Z,13.47
2023-01-12T19:14:02.039Z,14.30
2023-01-12T19:16:50.631Z,16.40
2023-01-12T19:19:24.580Z,13.83
2023-01-12T19:22:13.248Z,14.23
2023-01-12T19:25:01.474Z,11.67
2023-01-12T19:27:56.904Z,13.33
2023-01-12T19:30:27.893Z,10.87
2023-01-12T19:32:59.563Z,10.70
2023-01-12T19:35:30.689Z,14.90
2023-01-12T19:38:01.604Z,15.63
2023-01-12T19:40:36.316Z,15.63
2023-01-12T19:43:14.694Z,15.30
2023-01-12T19:45:47.787Z,16.53
2023-01-12T19:48:20.499Z,15.80
2023-01-12T19:50:51.886Z,15.10
2023-01-12T19:53:26.093Z,14.17
2023-01-12T19:55:58.469Z,11.80
2023-01-12T19:58:29.613Z,13.17
2023-01-12T20:01:01.179Z,11.97
2023-01-12T20:03:32.396Z,12.53
2023-01-12T20:06:07.718Z,12.43
2023-01-12T20:08:41.560Z,16.67
2023-01-12T20:11:13.160Z,19.07
2023-01-12T20:13:44.099Z,15.40
2023-01-12T20:16:16.196Z,19.30
2023-01-12T20:18:47.403Z,22.30
2023-01-12T20:21:18.528Z,12.63
2023-01-12T20:23:49.390Z,18.83
2023-01-12T20:26:20.227Z,15.90
2023-01-12T20:28:51.230Z,16.07
2023-01-12T20:31:23.572Z,15.60
2023-01-12T20:33:54.663Z,15.10
2023-01-12T20:36:27.517Z,19.20
2023-01-12T20:39:00.054Z,18.07
2023-01-12T20:41:30.757Z,16.83
2023-01-12T20:44:01.344Z,17.80
2023-01-12T20:46:32.154Z,18.53
2023-01-12T20:49:03.279Z,21.57
2023-01-12T20:51:34.214Z,16.93
2023-01-12T20:54:05.949Z,18.43
2023-01-12T20:56:36.685Z,16.90
2023-01-12T20:59:07.619Z,18.57
2023-01-12T21:01:38.218Z,22.03
2023-01-12T21:04:09.024Z,13.47
2023-01-12T21:06:41.141Z,12.60
2023-01-12T21:09:11.903Z,16.20
2023-01-12T21:11:43.182Z,17.80
2023-01-12T21:14:13.917Z,16.83
2023-01-12T21:16:46.385Z,12.60
2023-01-12T21:19:17.061Z,16.97
2023-01-12T21:21:47.813Z,18.33
2023-01-12T21:24:18.533Z,17.83
2023-01-12T21:26:49.338Z,19.33
2023-01-12T21:29:20.214Z,17.27
2023-01-12T21:31:50.974Z,14.67
2023-01-12T21:34:21.623Z,17.53
2023-01-12T21:36:52.200Z,21.33
2023-01-12T21:39:22.819Z,24.17
2023-01-12T21:42:10.971Z,20.33
2023-01-12T21:44:41.672Z,20.00
2023-01-12T21:47:12.439Z,17.13
2023-01-12T21:49:43.073Z,18.27
2023-01-12T21:52:13.982Z,12.27
2023-01-12T21:54:44.801Z,18.90
2023-01-12T21:57:15.365Z,15.67
2023-01-12T21:59:45.986Z,12.77
2023-01-12T22:02:16.673Z,12.53
2023-01-12T22:04:47.460Z,18.97
2023-01-12T22:07:18.121Z,18.17
2023-01-12T22:09:48.777Z,16.23
2023-01-12T22:12:19.380Z,20.20
2023-01-12T22:14:50.144Z,14.30
2023-01-12T22:17:20.743Z,20.70
2023-01-12T22:19:51.340Z,15.20
2023-01-12T22:22:21.934Z,23.13
2023-01-12T22:24:52.634Z,13.67
2023-01-12T22:27:25.709Z,17.60
2023-01-12T22:29:57.060Z,16.17
2023-01-12T22:32:27.658Z,15.17
2023-01-12T22:34:59.245Z,13.40
2023-01-12T22:37:30.343Z,15.27
2023-01-12T22:40:01.375Z,12.40
2023-01-12T22:42:50.897Z,17.40
2023-01-12T22:45:22.015Z,14.10
2023-01-12T22:47:55.292Z,12.47
2023-01-12T22:50:26.655Z,15.03
2023-01-12T22:52:57.414Z,16.83
2023-01-12T22:55:28.308Z,16.80
2023-01-12T22:57:58.990Z,17.07
2023-01-12T23:00:29.635Z,15.03
2023-01-12T23:03:03.333Z,15.47
2023-01-12T23:05:36.760Z,14.17
2023-01-12T23:08:08.859Z,12.40
2023-01-12T23:10:39.526Z,12.63
2023-01-12T23:13:19.254Z,15.73
2023-01-12T23:15:53.698Z,17.37
2023-01-12T23:18:28.571Z,18.77
2023-01-12T23:21:04.578Z,14.43
2023-01-12T23:23:35.241Z,15.63
2023-01-12T23:26:09.074Z,13.70
2023-01-12T23:28:43.230Z,13.10
2023-01-12T23:31:15.973Z,16.10
2023-01-12T23:33:46.897Z,13.40
2023-01-12T23:36:20.039Z,15.10
2023-01-12T23:38:54.905Z,11.00
2023-01-12T23:41:27.771Z,10.90
2023-01-12T23:44:01.156Z,13.43
2023-01-12T23:46:34.022Z,14.97
2023-01-12T23:49:06.031Z,12.97
2023-01-12T23:51:37.026Z,14.20
2023-01-12T23:54:08.108Z,9.30
2023-01-12T23:56:38.732Z,11.57
2023-01-12T23:59:09.383Z,14.83
